sensor_id;sensor_type;location;lat;lon;timestamp;pressure;altitude;pressure_sealevel;temperature;humidity
77454;BME280;66538;53.150;18.160;2023-12-14T00:01:44;100595.58;;;2.74;100.00
77454;BME280;66538;53.150;18.160;2023-12-14T00:04:12;100595.71;;;2.73;100.00
77454;BME280;66538;53.150;18.160;2023-12-14T00:06:38;100597.91;;;2.73;100.00
77454;BME280;66538;53.150;18.160;2023-12-14T00:09:05;100595.07;;;2.72;100.00
77454;BME280;66538;53.150;18.160;2023-12-14T00:11:32;100596.55;;;2.72;100.00
77454;BME280;66538;53.150;18.160;2023-12-14T00:13:58;100599.40;;;2.72;100.00
77454;BME280;66538;53.150;18.160;2023-12-14T00:16:25;100602.89;;;2.72;100.00
77454;BME280;66538;53.150;18.160;2023-12-14T00:18:51;100603.05;;;2.71;100.00
77454;BME280;66538;53.150;18.160;2023-12-14T00:21:18;100602.85;;;2.72;100.00
77454;BME280;66538;53.150;18.160;2023-12-14T00:23:45;100601.33;;;2.72;100.00
77454;BME280;66538;53.150;18.160;2023-12-14T00:26:11;100607.80;;;2.72;100.00
77454;BME280;66538;53.150;18.160;2023-12-14T00:28:39;100608.86;;;2.72;100.00
77454;BME280;66538;53.150;18.160;2023-12-14T00:31:05;100612.71;;;2.71;100.00
77454;BME280;66538;53.150;18.160;2023-12-14T00:33:32;100608.74;;;2.69;100.00
77454;BME280;66538;53.150;18.160;2023-12-14T00:35:58;100613.55;;;2.69;100.00
77454;BME280;66538;53.150;18.160;2023-12-14T00:38:25;100617.59;;;2.70;100.00
77454;BME280;66538;53.150;18.160;2023-12-14T00:40:52;100613.80;;;2.69;100.00
77454;BME280;66538;53.150;18.160;2023-12-14T00:43:18;100615.62;;;2.70;100.00
77454;BME280;66538;53.150;18.160;2023-12-14T00:45:45;100614.23;;;2.68;100.00
77454;BME280;66538;53.150;18.160;2023-12-14T00:48:12;100618.52;;;2.68;100.00
77454;BME280;66538;53.150;18.160;2023-12-14T00:50:38;100614.95;;;2.67;100.00
77454;BME280;66538;53.150;18.160;2023-12-14T00:53:05;100614.52;;;2.66;100.00
77454;BME280;66538;53.150;18.160;2023-12-14T00:55:32;100619.02;;;2.66;100.00
77454;BME280;66538;53.150;18.160;2023-12-14T00:57:58;100624.05;;;2.66;100.00
77454;BME280;66538;53.150;18.160;2023-12-14T01:00:25;100624.23;;;2.66;100.00
77454;BME280;66538;53.150;18.160;2023-12-14T01:02:51;100622.70;;;2.64;100.00
77454;BME280;66538;53.150;18.160;2023-12-14T01:05:18;100627.09;;;2.65;100.00
77454;BME280;66538;53.150;18.160;2023-12-14T01:07:45;100627.02;;;2.63;100.00
77454;BME280;66538;53.150;18.160;2023-12-14T01:10:11;100627.33;;;2.64;100.00
77454;BME280;66538;53.150;18.160;2023-12-14T01:12:38;100630.09;;;2.64;100.00
77454;BME280;66538;53.150;18.160;2023-12-14T01:15:05;100630.50;;;2.63;100.00
77454;BME280;66538;53.150;18.160;2023-12-14T01:17:32;100631.14;;;2.63;100.00
77454;BME280;66538;53.150;18.160;2023-12-14T01:20:05;100633.85;;;2.62;100.00
77454;BME280;66538;53.150;18.160;2023-12-14T01:22:32;100637.41;;;2.63;100.00
77454;BME280;66538;53.150;18.160;2023-12-14T01:24:59;100636.17;;;2.61;100.00
77454;BME280;66538;53.150;18.160;2023-12-14T01:27:26;100637.30;;;2.61;100.00
77454;BME280;66538;53.150;18.160;2023-12-14T01:29:52;100640.84;;;2.61;100.00
77454;BME280;66538;53.150;18.160;2023-12-14T01:32:19;100642.20;;;2.62;100.00
77454;BME280;66538;53.150;18.160;2023-12-14T01:34:46;100643.66;;;2.60;100.00
77454;BME280;66538;53.150;18.160;2023-12-14T01:37:12;100643.62;;;2.60;100.00
77454;BME280;66538;53.150;18.160;2023-12-14T01:39:39;100648.31;;;2.60;100.00
77454;BME280;66538;53.150;18.160;2023-12-14T01:42:05;100648.13;;;2.61;100.00
77454;BME280;66538;53.150;18.160;2023-12-14T01:44:32;100648.02;;;2.61;100.00
77454;BME280;66538;53.150;18.160;2023-12-14T01:46:58;100652.91;;;2.62;100.00
77454;BME280;66538;53.150;18.160;2023-12-14T01:49:25;100653.17;;;2.61;100.00
77454;BME280;66538;53.150;18.160;2023-12-14T01:51:52;100649.39;;;2.60;100.00
77454;BME280;66538;53.150;18.160;2023-12-14T01:54:18;100650.41;;;2.60;100.00
77454;BME280;66538;53.150;18.160;2023-12-14T01:56:45;100647.69;;;2.59;100.00
77454;BME280;66538;53.150;18.160;2023-12-14T01:59:13;100645.97;;;2.59;100.00
77454;BME280;66538;53.150;18.160;2023-12-14T02:01:42;100646.70;;;2.59;100.00
77454;BME280;66538;53.150;18.160;2023-12-14T02:04:10;100648.20;;;2.58;100.00
77454;BME280;66538;53.150;18.160;2023-12-14T02:06:37;100648.34;;;2.58;100.00
77454;BME280;66538;53.150;18.160;2023-12-14T02:09:04;100642.43;;;2.58;100.00
77454;BME280;66538;53.150;18.160;2023-12-14T02:11:31;100638.90;;;2.57;100.00
77454;BME280;66538;53.150;18.160;2023-12-14T02:14:03;100642.04;;;2.56;100.00
77454;BME280;66538;53.150;18.160;2023-12-14T02:16:30;100640.72;;;2.56;100.00
77454;BME280;66538;53.150;18.160;2023-12-14T02:18:58;100637.55;;;2.54;100.00
77454;BME280;66538;53.150;18.160;2023-12-14T02:21:25;100638.97;;;2.53;100.00
77454;BME280;66538;53.150;18.160;2023-12-14T02:23:51;100640.21;;;2.53;100.00
77454;BME280;66538;53.150;18.160;2023-12-14T02:26:18;100646.55;;;2.54;100.00
77454;BME280;66538;53.150;18.160;2023-12-14T02:28:45;100644.48;;;2.53;100.00
77454;BME280;66538;53.150;18.160;2023-12-14T02:31:11;100651.55;;;2.53;100.00
77454;BME280;66538;53.150;18.160;2023-12-14T02:33:38;100651.27;;;2.52;100.00
77454;BME280;66538;53.150;18.160;2023-12-14T02:36:05;100653.94;;;2.52;100.00
77454;BME280;66538;53.150;18.160;2023-12-14T02:38:31;100651.51;;;2.51;100.00
77454;BME280;66538;53.150;18.160;2023-12-14T02:40:58;100654.43;;;2.51;100.00
77454;BME280;66538;53.150;18.160;2023-12-14T02:43:25;100656.45;;;2.52;100.00
77454;BME280;66538;53.150;18.160;2023-12-14T02:45:51;100657.36;;;2.52;100.00
77454;BME280;66538;53.150;18.160;2023-12-14T02:48:18;100655.55;;;2.52;100.00
77454;BME280;66538;53.150;18.160;2023-12-14T02:50:45;100658.48;;;2.52;100.00
77454;BME280;66538;53.150;18.160;2023-12-14T02:53:11;100658.80;;;2.51;100.00
77454;BME280;66538;53.150;18.160;2023-12-14T02:55:38;100664.98;;;2.52;100.00
77454;BME280;66538;53.150;18.160;2023-12-14T02:58:05;100663.30;;;2.52;100.00
77454;BME280;66538;53.150;18.160;2023-12-14T03:00:32;100665.73;;;2.52;100.00
77454;BME280;66538;53.150;18.160;2023-12-14T03:02:58;100668.52;;;2.53;100.00
77454;BME280;66538;53.150;18.160;2023-12-14T03:05:25;100673.71;;;2.54;100.00
77454;BME280;66538;53.150;18.160;2023-12-14T03:07:51;100675.70;;;2.54;100.00
77454;BME280;66538;53.150;18.160;2023-12-14T03:10:18;100678.86;;;2.54;100.00
77454;BME280;66538;53.150;18.160;2023-12-14T03:12:45;100678.24;;;2.55;100.00
77454;BME280;66538;53.150;18.160;2023-12-14T03:15:11;100680.67;;;2.55;100.00
77454;BME280;66538;53.150;18.160;2023-12-14T03:17:38;100682.36;;;2.56;100.00
77454;BME280;66538;53.150;18.160;2023-12-14T03:20:05;100685.63;;;2.55;100.00
77454;BME280;66538;53.150;18.160;2023-12-14T03:22:32;100687.17;;;2.56;100.00
77454;BME280;66538;53.150;18.160;2023-12-14T03:24:59;100689.06;;;2.56;100.00
77454;BME280;66538;53.150;18.160;2023-12-14T03:27:25;100690.92;;;2.56;100.00
77454;BME280;66538;53.150;18.160;2023-12-14T03:29:52;100690.16;;;2.55;100.00
77454;BME280;66538;53.150;18.160;2023-12-14T03:32:19;100693.05;;;2.55;100.00
77454;BME280;66538;53.150;18.160;2023-12-14T03:34:45;100695.36;;;2.54;100.00
77454;BME280;66538;53.150;18.160;2023-12-14T03:37:12;100700.98;;;2.53;100.00
77454;BME280;66538;53.150;18.160;2023-12-14T03:39:38;100702.58;;;2.53;100.00
77454;BME280;66538;53.150;18.160;2023-12-14T03:42:05;100706.48;;;2.53;100.00
77454;BME280;66538;53.150;18.160;2023-12-14T03:44:32;100708.34;;;2.53;100.00
77454;BME280;66538;53.150;18.160;2023-12-14T03:46:59;100714.57;;;2.54;100.00
77454;BME280;66538;53.150;18.160;2023-12-14T03:49:26;100714.32;;;2.55;100.00
77454;BME280;66538;53.150;18.160;2023-12-14T03:51:53;100714.23;;;2.55;100.00
77454;BME280;66538;53.150;18.160;2023-12-14T03:54:19;100716.73;;;2.55;100.00
77454;BME280;66538;53.150;18.160;2023-12-14T03:56:46;100715.37;;;2.56;100.00
77454;BME280;66538;53.150;18.160;2023-12-14T03:59:12;100719.16;;;2.56;100.00
77454;BME280;66538;53.150;18.160;2023-12-14T04:01:39;100721.95;;;2.55;100.00
77454;BME280;66538;53.150;18.160;2023-12-14T04:04:06;100723.83;;;2.54;100.00
77454;BME280;66538;53.150;18.160;2023-12-14T04:06:33;100725.70;;;2.54;100.00
77454;BME280;66538;53.150;18.160;2023-12-14T04:09:00;100730.56;;;2.55;100.00
77454;BME280;66538;53.150;18.160;2023-12-14T04:11:26;100736.24;;;2.55;100.00
77454;BME280;66538;53.150;18.160;2023-12-14T04:13:53;100735.31;;;2.53;100.00
77454;BME280;66538;53.150;18.160;2023-12-14T04:16:20;100739.30;;;2.52;100.00
77454;BME280;66538;53.150;18.160;2023-12-14T04:18:47;100746.81;;;2.52;100.00
77454;BME280;66538;53.150;18.160;2023-12-14T04:21:13;100744.59;;;2.52;100.00
77454;BME280;66538;53.150;18.160;2023-12-14T04:23:40;100744.02;;;2.51;100.00
77454;BME280;66538;53.150;18.160;2023-12-14T04:26:07;100744.51;;;2.51;100.00
77454;BME280;66538;53.150;18.160;2023-12-14T04:28:35;100746.70;;;2.50;100.00
77454;BME280;66538;53.150;18.160;2023-12-14T04:31:02;100743.21;;;2.49;100.00
77454;BME280;66538;53.150;18.160;2023-12-14T04:33:29;100743.45;;;2.48;100.00
77454;BME280;66538;53.150;18.160;2023-12-14T04:35:56;100744.41;;;2.48;100.00
77454;BME280;66538;53.150;18.160;2023-12-14T04:38:22;100747.59;;;2.47;100.00
77454;BME280;66538;53.150;18.160;2023-12-14T04:40:49;100752.70;;;2.46;100.00
77454;BME280;66538;53.150;18.160;2023-12-14T04:43:15;100753.90;;;2.45;100.00
77454;BME280;66538;53.150;18.160;2023-12-14T04:45:42;100758.11;;;2.44;100.00
77454;BME280;66538;53.150;18.160;2023-12-14T04:48:08;100760.01;;;2.44;100.00
77454;BME280;66538;53.150;18.160;2023-12-14T04:50:35;100763.39;;;2.44;100.00
77454;BME280;66538;53.150;18.160;2023-12-14T04:53:02;100767.14;;;2.42;100.00
77454;BME280;66538;53.150;18.160;2023-12-14T04:55:28;100765.70;;;2.41;100.00
77454;BME280;66538;53.150;18.160;2023-12-14T04:57:55;100771.47;;;2.42;100.00
77454;BME280;66538;53.150;18.160;2023-12-14T05:00:21;100766.63;;;2.40;100.00
77454;BME280;66538;53.150;18.160;2023-12-14T05:02:48;100768.48;;;2.39;100.00
77454;BME280;66538;53.150;18.160;2023-12-14T05:05:15;100768.45;;;2.40;100.00
77454;BME280;66538;53.150;18.160;2023-12-14T05:07:41;100769.39;;;2.39;100.00
77454;BME280;66538;53.150;18.160;2023-12-14T05:10:08;100763.83;;;2.38;100.00
77454;BME280;66538;53.150;18.160;2023-12-14T05:12:36;100771.34;;;2.38;100.00
77454;BME280;66538;53.150;18.160;2023-12-14T05:15:05;100771.51;;;2.36;100.00
77454;BME280;66538;53.150;18.160;2023-12-14T05:17:32;100774.15;;;2.35;100.00
77454;BME280;66538;53.150;18.160;2023-12-14T05:19:58;100776.64;;;2.34;100.00
77454;BME280;66538;53.150;18.160;2023-12-14T05:22:25;100780.75;;;2.33;100.00
77454;BME280;66538;53.150;18.160;2023-12-14T05:24:52;100784.88;;;2.33;100.00
77454;BME280;66538;53.150;18.160;2023-12-14T05:27:18;100788.23;;;2.31;100.00
77454;BME280;66538;53.150;18.160;2023-12-14T05:29:45;100795.02;;;2.31;100.00
77454;BME280;66538;53.150;18.160;2023-12-14T05:32:11;100794.70;;;2.29;100.00
77454;BME280;66538;53.150;18.160;2023-12-14T05:34:38;100798.81;;;2.29;100.00
77454;BME280;66538;53.150;18.160;2023-12-14T05:37:05;100804.06;;;2.28;100.00
77454;BME280;66538;53.150;18.160;2023-12-14T05:39:31;100803.11;;;2.27;100.00
77454;BME280;66538;53.150;18.160;2023-12-14T05:41:58;100800.77;;;2.26;100.00
77454;BME280;66538;53.150;18.160;2023-12-14T05:44:25;100803.45;;;2.26;100.00
77454;BME280;66538;53.150;18.160;2023-12-14T05:46:52;100803.95;;;2.26;100.00
77454;BME280;66538;53.150;18.160;2023-12-14T05:49:18;100805.77;;;2.25;100.00
77454;BME280;66538;53.150;18.160;2023-12-14T05:51:45;100806.30;;;2.26;100.00
77454;BME280;66538;53.150;18.160;2023-12-14T05:54:11;100811.60;;;2.25;100.00
77454;BME280;66538;53.150;18.160;2023-12-14T05:56:38;100817.05;;;2.25;100.00
77454;BME280;66538;53.150;18.160;2023-12-14T05:59:04;100815.48;;;2.25;100.00
77454;BME280;66538;53.150;18.160;2023-12-14T06:01:31;100809.48;;;2.23;100.00
77454;BME280;66538;53.150;18.160;2023-12-14T06:03:58;100817.30;;;2.26;100.00
77454;BME280;66538;53.150;18.160;2023-12-14T06:06:24;100819.48;;;2.26;100.00
77454;BME280;66538;53.150;18.160;2023-12-14T06:08:51;100818.16;;;2.26;100.00
77454;BME280;66538;53.150;18.160;2023-12-14T06:11:17;100823.88;;;2.26;100.00
77454;BME280;66538;53.150;18.160;2023-12-14T06:13:44;100821.98;;;2.27;100.00
77454;BME280;66538;53.150;18.160;2023-12-14T06:16:10;100824.45;;;2.29;100.00
77454;BME280;66538;53.150;18.160;2023-12-14T06:18:40;100827.23;;;2.28;100.00
77454;BME280;66538;53.150;18.160;2023-12-14T06:21:11;100830.76;;;2.28;100.00
77454;BME280;66538;53.150;18.160;2023-12-14T06:23:38;100837.23;;;2.28;100.00
77454;BME280;66538;53.150;18.160;2023-12-14T06:26:04;100844.76;;;2.29;100.00
77454;BME280;66538;53.150;18.160;2023-12-14T06:28:31;100845.38;;;2.30;100.00
77454;BME280;66538;53.150;18.160;2023-12-14T06:30:58;100853.13;;;2.31;100.00
77454;BME280;66538;53.150;18.160;2023-12-14T06:33:24;100861.52;;;2.30;100.00
77454;BME280;66538;53.150;18.160;2023-12-14T06:35:51;100863.52;;;2.30;100.00
77454;BME280;66538;53.150;18.160;2023-12-14T06:38:17;100865.50;;;2.29;100.00
77454;BME280;66538;53.150;18.160;2023-12-14T06:40:44;100866.80;;;2.29;100.00
77454;BME280;66538;53.150;18.160;2023-12-14T06:43:11;100876.05;;;2.30;100.00
77454;BME280;66538;53.150;18.160;2023-12-14T06:45:37;100877.19;;;2.30;100.00
77454;BME280;66538;53.150;18.160;2023-12-14T06:48:04;100881.35;;;2.30;100.00
77454;BME280;66538;53.150;18.160;2023-12-14T06:50:32;100882.30;;;2.30;100.00
77454;BME280;66538;53.150;18.160;2023-12-14T06:52:58;100885.07;;;2.28;100.00
77454;BME280;66538;53.150;18.160;2023-12-14T06:55:25;100890.80;;;2.28;100.00
77454;BME280;66538;53.150;18.160;2023-12-14T06:57:51;100892.08;;;2.28;100.00
77454;BME280;66538;53.150;18.160;2023-12-14T07:00:18;100899.16;;;2.28;100.00
77454;BME280;66538;53.150;18.160;2023-12-14T07:02:45;100897.84;;;2.29;100.00
77454;BME280;66538;53.150;18.160;2023-12-14T07:05:11;100904.73;;;2.27;100.00
77454;BME280;66538;53.150;18.160;2023-12-14T07:07:38;100909.93;;;2.27;100.00
77454;BME280;66538;53.150;18.160;2023-12-14T07:10:05;100910.96;;;2.26;100.00
77454;BME280;66538;53.150;18.160;2023-12-14T07:12:32;100916.98;;;2.26;100.00
77454;BME280;66538;53.150;18.160;2023-12-14T07:14:58;100925.63;;;2.25;100.00
77454;BME280;66538;53.150;18.160;2023-12-14T07:17:25;100930.20;;;2.27;100.00
77454;BME280;66538;53.150;18.160;2023-12-14T07:19:52;100938.50;;;2.29;100.00
77454;BME280;66538;53.150;18.160;2023-12-14T07:22:19;100936.33;;;2.29;100.00
77454;BME280;66538;53.150;18.160;2023-12-14T07:24:45;100941.77;;;2.30;100.00
77454;BME280;66538;53.150;18.160;2023-12-14T07:27:12;100942.96;;;2.30;100.00
77454;BME280;66538;53.150;18.160;2023-12-14T07:29:38;100942.68;;;2.30;100.00
77454;BME280;66538;53.150;18.160;2023-12-14T07:32:05;100945.73;;;2.30;100.00
77454;BME280;66538;53.150;18.160;2023-12-14T07:34:32;100948.37;;;2.30;100.00
77454;BME280;66538;53.150;18.160;2023-12-14T07:36:58;100954.41;;;2.31;100.00
77454;BME280;66538;53.150;18.160;2023-12-14T07:39:25;100954.29;;;2.32;100.00
77454;BME280;66538;53.150;18.160;2023-12-14T07:41:52;100960.09;;;2.33;100.00
77454;BME280;66538;53.150;18.160;2023-12-14T07:44:19;100961.71;;;2.33;100.00
77454;BME280;66538;53.150;18.160;2023-12-14T07:46:46;100966.52;;;2.34;100.00
77454;BME280;66538;53.150;18.160;2023-12-14T07:49:13;100969.49;;;2.36;100.00
77454;BME280;66538;53.150;18.160;2023-12-14T07:51:39;100975.55;;;2.39;100.00
77454;BME280;66538;53.150;18.160;2023-12-14T07:54:06;100976.91;;;2.39;100.00
77454;BME280;66538;53.150;18.160;2023-12-14T07:56:32;100985.48;;;2.41;100.00
77454;BME280;66538;53.150;18.160;2023-12-14T07:58:59;100992.64;;;2.42;100.00
77454;BME280;66538;53.150;18.160;2023-12-14T08:01:26;100997.46;;;2.42;100.00
77454;BME280;66538;53.150;18.160;2023-12-14T08:03:52;101001.95;;;2.43;100.00
77454;BME280;66538;53.150;18.160;2023-12-14T08:06:19;101006.52;;;2.46;100.00
77454;BME280;66538;53.150;18.160;2023-12-14T08:08:45;101012.45;;;2.50;100.00
77454;BME280;66538;53.150;18.160;2023-12-14T08:11:12;101014.60;;;2.51;100.00
77454;BME280;66538;53.150;18.160;2023-12-14T08:13:39;101018.47;;;2.51;100.00
77454;BME280;66538;53.150;18.160;2023-12-14T08:16:09;101022.67;;;2.53;100.00
77454;BME280;66538;53.150;18.160;2023-12-14T08:18:37;101018.42;;;2.55;100.00
77454;BME280;66538;53.150;18.160;2023-12-14T08:21:04;101015.79;;;2.54;100.00
77454;BME280;66538;53.150;18.160;2023-12-14T08:23:31;101017.35;;;2.57;100.00
77454;BME280;66538;53.150;18.160;2023-12-14T08:25:57;101023.31;;;2.59;100.00
77454;BME280;66538;53.150;18.160;2023-12-14T08:28:25;101027.06;;;2.60;100.00
77454;BME280;66538;53.150;18.160;2023-12-14T08:30:51;101029.58;;;2.61;100.00
77454;BME280;66538;53.150;18.160;2023-12-14T08:33:18;101029.82;;;2.61;100.00
77454;BME280;66538;53.150;18.160;2023-12-14T08:35:45;101039.60;;;2.62;100.00
77454;BME280;66538;53.150;18.160;2023-12-14T08:38:11;101044.95;;;2.64;100.00
77454;BME280;66538;53.150;18.160;2023-12-14T08:40:39;101048.45;;;2.65;100.00
77454;BME280;66538;53.150;18.160;2023-12-14T08:43:05;101048.00;;;2.66;100.00
77454;BME280;66538;53.150;18.160;2023-12-14T08:45:32;101051.95;;;2.67;100.00
77454;BME280;66538;53.150;18.160;2023-12-14T08:47:59;101059.30;;;2.67;100.00
77454;BME280;66538;53.150;18.160;2023-12-14T08:50:25;101063.05;;;2.69;100.00
77454;BME280;66538;53.150;18.160;2023-12-14T08:52:52;101071.24;;;2.71;100.00
77454;BME280;66538;53.150;18.160;2023-12-14T08:55:19;101073.59;;;2.74;100.00
77454;BME280;66538;53.150;18.160;2023-12-14T08:57:46;101083.11;;;2.77;100.00
77454;BME280;66538;53.150;18.160;2023-12-14T09:00:13;101091.44;;;2.80;100.00
77454;BME280;66538;53.150;18.160;2023-12-14T09:02:39;101094.98;;;2.82;100.00
77454;BME280;66538;53.150;18.160;2023-12-14T09:05:06;101095.84;;;2.84;100.00
77454;BME280;66538;53.150;18.160;2023-12-14T09:07:33;101101.70;;;2.87;100.00
77454;BME280;66538;53.150;18.160;2023-12-14T09:10:00;101102.29;;;2.97;100.00
77454;BME280;66538;53.150;18.160;2023-12-14T09:12:27;101101.00;;;3.05;100.00
77454;BME280;66538;53.150;18.160;2023-12-14T09:14:53;101102.44;;;3.11;100.00
77454;BME280;66538;53.150;18.160;2023-12-14T09:17:20;101104.89;;;3.13;100.00
77454;BME280;66538;53.150;18.160;2023-12-14T09:19:46;101100.05;;;3.13;100.00
77454;BME280;66538;53.150;18.160;2023-12-14T09:22:13;101100.02;;;3.15;100.00
77454;BME280;66538;53.150;18.160;2023-12-14T09:24:39;101103.40;;;3.18;100.00
77454;BME280;66538;53.150;18.160;2023-12-14T09:27:06;101101.83;;;3.20;100.00
77454;BME280;66538;53.150;18.160;2023-12-14T09:29:32;101107.23;;;3.22;100.00
77454;BME280;66538;53.150;18.160;2023-12-14T09:31:59;101108.45;;;3.26;100.00
77454;BME280;66538;53.150;18.160;2023-12-14T09:34:26;101114.17;;;3.27;100.00
77454;BME280;66538;53.150;18.160;2023-12-14T09:36:52;101108.20;;;3.27;100.00
77454;BME280;66538;53.150;18.160;2023-12-14T09:39:19;101114.28;;;3.31;100.00
77454;BME280;66538;53.150;18.160;2023-12-14T09:41:50;101113.73;;;3.34;100.00
77454;BME280;66538;53.150;18.160;2023-12-14T09:44:17;101115.17;;;3.36;100.00
77454;BME280;66538;53.150;18.160;2023-12-14T09:46:43;101120.70;;;3.40;100.00
77454;BME280;66538;53.150;18.160;2023-12-14T09:49:16;101117.80;;;3.44;100.00
77454;BME280;66538;53.150;18.160;2023-12-14T09:51:44;101122.32;;;3.47;100.00
77454;BME280;66538;53.150;18.160;2023-12-14T09:54:11;101127.27;;;3.51;100.00
77454;BME280;66538;53.150;18.160;2023-12-14T09:56:48;101123.83;;;3.54;100.00
77454;BME280;66538;53.150;18.160;2023-12-14T09:59:15;101127.07;;;3.58;100.00
77454;BME280;66538;53.150;18.160;2023-12-14T10:01:43;101126.51;;;3.60;100.00
77454;BME280;66538;53.150;18.160;2023-12-14T10:04:11;101125.09;;;3.65;100.00
77454;BME280;66538;53.150;18.160;2023-12-14T10:06:39;101123.81;;;3.66;100.00
77454;BME280;66538;53.150;18.160;2023-12-14T10:09:07;101122.48;;;3.67;100.00
77454;BME280;66538;53.150;18.160;2023-12-14T10:11:40;101124.66;;;3.70;100.00
77454;BME280;66538;53.150;18.160;2023-12-14T10:14:25;101125.60;;;3.71;100.00
77454;BME280;66538;53.150;18.160;2023-12-14T10:16:52;101129.84;;;3.74;100.00
77454;BME280;66538;53.150;18.160;2023-12-14T10:19:19;101127.40;;;3.74;99.96
77454;BME280;66538;53.150;18.160;2023-12-14T10:21:49;101127.11;;;3.75;99.99
77454;BME280;66538;53.150;18.160;2023-12-14T10:24:16;101130.13;;;3.75;99.90
77454;BME280;66538;53.150;18.160;2023-12-14T10:26:47;101130.73;;;3.76;100.00
77454;BME280;66538;53.150;18.160;2023-12-14T10:29:15;101137.89;;;3.76;99.44
77454;BME280;66538;53.150;18.160;2023-12-14T10:31:43;101137.40;;;3.74;99.27
77454;BME280;66538;53.150;18.160;2023-12-14T10:34:09;101141.57;;;3.74;98.30
77454;BME280;66538;53.150;18.160;2023-12-14T10:36:38;101149.05;;;3.72;96.86
77454;BME280;66538;53.150;18.160;2023-12-14T10:39:08;101150.89;;;3.69;98.30
77454;BME280;66538;53.150;18.160;2023-12-14T10:41:37;101152.53;;;3.69;98.70
77454;BME280;66538;53.150;18.160;2023-12-14T10:44:04;101152.23;;;3.69;98.36
77454;BME280;66538;53.150;18.160;2023-12-14T10:46:32;101154.73;;;3.71;99.07
77454;BME280;66538;53.150;18.160;2023-12-14T10:49:01;101157.36;;;3.71;99.32
77454;BME280;66538;53.150;18.160;2023-12-14T10:51:28;101160.60;;;3.76;99.62
77454;BME280;66538;53.150;18.160;2023-12-14T10:53:55;101162.84;;;3.78;98.69
77454;BME280;66538;53.150;18.160;2023-12-14T10:56:23;101166.24;;;3.79;98.47
77454;BME280;66538;53.150;18.160;2023-12-14T10:58:52;101172.77;;;3.80;97.76
77454;BME280;66538;53.150;18.160;2023-12-14T11:01:21;101167.33;;;3.78;97.64
77454;BME280;66538;53.150;18.160;2023-12-14T11:03:48;101169.81;;;3.77;97.12
77454;BME280;66538;53.150;18.160;2023-12-14T11:06:26;101175.55;;;3.75;97.37
77454;BME280;66538;53.150;18.160;2023-12-14T11:09:04;101176.10;;;3.74;97.85
77454;BME280;66538;53.150;18.160;2023-12-14T11:14:20;101183.39;;;3.70;95.41
77454;BME280;66538;53.150;18.160;2023-12-14T11:16:52;101191.42;;;3.67;96.53
77454;BME280;66538;53.150;18.160;2023-12-14T11:22:25;101199.19;;;3.65;96.92
77454;BME280;66538;53.150;18.160;2023-12-14T11:24:54;101198.20;;;3.65;97.02
77454;BME280;66538;53.150;18.160;2023-12-14T11:27:29;101205.09;;;3.64;96.48
77454;BME280;66538;53.150;18.160;2023-12-14T11:29:56;101207.69;;;3.65;95.78
77454;BME280;66538;53.150;18.160;2023-12-14T11:32:24;101209.44;;;3.62;94.13
77454;BME280;66538;53.150;18.160;2023-12-14T11:34:51;101212.95;;;3.60;94.81
77454;BME280;66538;53.150;18.160;2023-12-14T11:37:18;101217.20;;;3.63;96.25
77454;BME280;66538;53.150;18.160;2023-12-14T11:39:45;101221.52;;;3.65;95.84
77454;BME280;66538;53.150;18.160;2023-12-14T11:42:18;101215.28;;;3.65;94.71
77454;BME280;66538;53.150;18.160;2023-12-14T11:44:44;101216.73;;;3.68;95.20
77454;BME280;66538;53.150;18.160;2023-12-14T11:47:11;101220.19;;;3.71;94.84
77454;BME280;66538;53.150;18.160;2023-12-14T11:49:37;101220.77;;;3.72;94.31
77454;BME280;66538;53.150;18.160;2023-12-14T11:52:04;101221.97;;;3.70;94.31
77454;BME280;66538;53.150;18.160;2023-12-14T11:54:31;101223.55;;;3.70;93.99
77454;BME280;66538;53.150;18.160;2023-12-14T11:57:01;101224.69;;;3.71;94.38
77454;BME280;66538;53.150;18.160;2023-12-14T11:59:28;101224.29;;;3.70;94.51
77454;BME280;66538;53.150;18.160;2023-12-14T12:01:56;101229.20;;;3.72;94.32
77454;BME280;66538;53.150;18.160;2023-12-14T12:04:24;101229.35;;;3.73;93.58
77454;BME280;66538;53.150;18.160;2023-12-14T12:07:04;101230.09;;;3.75;93.49
77454;BME280;66538;53.150;18.160;2023-12-14T12:09:34;101229.27;;;3.74;93.36
77454;BME280;66538;53.150;18.160;2023-12-14T12:12:05;101233.89;;;3.74;93.73
77454;BME280;66538;53.150;18.160;2023-12-14T12:14:32;101235.15;;;3.73;93.01
77454;BME280;66538;53.150;18.160;2023-12-14T12:16:59;101239.02;;;3.71;92.73
77454;BME280;66538;53.150;18.160;2023-12-14T12:19:25;101238.50;;;3.67;91.96
77454;BME280;66538;53.150;18.160;2023-12-14T12:21:52;101237.81;;;3.64;92.53
77454;BME280;66538;53.150;18.160;2023-12-14T12:24:18;101240.91;;;3.63;93.10
77454;BME280;66538;53.150;18.160;2023-12-14T12:26:45;101241.20;;;3.59;91.06
77454;BME280;66538;53.150;18.160;2023-12-14T12:29:12;101240.72;;;3.56;91.70
77454;BME280;66538;53.150;18.160;2023-12-14T12:31:38;101242.25;;;3.54;91.77
77454;BME280;66538;53.150;18.160;2023-12-14T12:34:06;101243.20;;;3.53;91.00
77454;BME280;66538;53.150;18.160;2023-12-14T12:36:33;101241.84;;;3.51;91.59
77454;BME280;66538;53.150;18.160;2023-12-14T12:38:59;101242.59;;;3.51;92.18
77454;BME280;66538;53.150;18.160;2023-12-14T12:41:26;101247.21;;;3.49;91.24
77454;BME280;66538;53.150;18.160;2023-12-14T12:43:52;101250.67;;;3.49;92.07
77454;BME280;66538;53.150;18.160;2023-12-14T12:46:19;101250.85;;;3.46;92.32
77454;BME280;66538;53.150;18.160;2023-12-14T12:48:45;101260.67;;;3.47;92.00